sensor_id;sensor_type;location;lat;lon;timestamp;P1;durP1;ratioP1;P2;durP2;ratioP2
71639;SDS011;60912;48.968;10.124;2022-10-31T00:01:53;13.77;;;4.80;;
71639;SDS011;60912;48.968;10.124;2022-10-31T00:04:21;9.80;;;4.50;;
71639;SDS011;60912;48.968;10.124;2022-10-31T00:09:54;13.18;;;4.32;;
71639;SDS011;60912;48.968;10.124;2022-10-31T00:12:20;12.23;;;4.30;;
71639;SDS011;60912;48.968;10.124;2022-10-31T00:14:54;8.57;;;3.83;;
71639;SDS011;60912;48.968;10.124;2022-10-31T00:17:25;10.37;;;3.90;;
71639;SDS011;60912;48.968;10.124;2022-10-31T00:19:53;12.50;;;3.90;;
71639;SDS011;60912;48.968;10.124;2022-10-31T00:22:21;7.57;;;4.10;;
71639;SDS011;60912;48.968;10.124;2022-10-31T00:24:50;10.02;;;3.60;;
71639;SDS011;60912;48.968;10.124;2022-10-31T00:27:18;8.90;;;4.23;;
71639;SDS011;60912;48.968;10.124;2022-10-31T00:29:43;9.52;;;3.92;;
71639;SDS011;60912;48.968;10.124;2022-10-31T00:32:09;9.43;;;4.03;;
71639;SDS011;60912;48.968;10.124;2022-10-31T00:34:34;9.73;;;4.23;;
71639;SDS011;60912;48.968;10.124;2022-10-31T00:37:00;8.70;;;3.90;;
71639;SDS011;60912;48.968;10.124;2022-10-31T00:39:25;12.15;;;3.60;;
71639;SDS011;60912;48.968;10.124;2022-10-31T00:41:51;9.47;;;3.50;;
71639;SDS011;60912;48.968;10.124;2022-10-31T00:44:16;9.83;;;3.83;;
71639;SDS011;60912;48.968;10.124;2022-10-31T00:46:41;13.13;;;3.70;;
71639;SDS011;60912;48.968;10.124;2022-10-31T00:49:07;10.50;;;3.50;;
71639;SDS011;60912;48.968;10.124;2022-10-31T00:51:32;9.27;;;3.57;;
71639;SDS011;60912;48.968;10.124;2022-10-31T00:53:57;8.53;;;3.50;;
71639;SDS011;60912;48.968;10.124;2022-10-31T00:56:23;9.83;;;3.40;;
71639;SDS011;60912;48.968;10.124;2022-10-31T00:58:48;10.73;;;4.00;;
71639;SDS011;60912;48.968;10.124;2022-10-31T01:01:30;9.80;;;3.67;;
71639;SDS011;60912;48.968;10.124;2022-10-31T01:04:10;11.70;;;3.75;;
71639;SDS011;60912;48.968;10.124;2022-10-31T01:06:38;12.10;;;3.72;;
71639;SDS011;60912;48.968;10.124;2022-10-31T01:09:11;7.07;;;3.60;;
71639;SDS011;60912;48.968;10.124;2022-10-31T01:11:42;7.83;;;3.80;;
71639;SDS011;60912;48.968;10.124;2022-10-31T01:14:16;9.63;;;3.40;;
71639;SDS011;60912;48.968;10.124;2022-10-31T01:16:41;12.77;;;3.93;;
71639;SDS011;60912;48.968;10.124;2022-10-31T01:19:07;11.82;;;3.65;;
71639;SDS011;60912;48.968;10.124;2022-10-31T01:21:35;8.27;;;3.60;;
71639;SDS011;60912;48.968;10.124;2022-10-31T01:24:00;10.93;;;3.67;;
71639;SDS011;60912;48.968;10.124;2022-10-31T01:26:29;7.83;;;3.63;;
71639;SDS011;60912;48.968;10.124;2022-10-31T01:29:00;12.05;;;3.70;;
71639;SDS011;60912;48.968;10.124;2022-10-31T01:31:28;10.20;;;4.40;;
71639;SDS011;60912;48.968;10.124;2022-10-31T01:33:56;9.57;;;3.60;;
71639;SDS011;60912;48.968;10.124;2022-10-31T01:36:29;11.68;;;4.07;;
71639;SDS011;60912;48.968;10.124;2022-10-31T01:38:56;10.03;;;4.07;;
71639;SDS011;60912;48.968;10.124;2022-10-31T01:41:29;14.35;;;3.97;;
71639;SDS011;60912;48.968;10.124;2022-10-31T01:43:57;8.80;;;4.00;;
71639;SDS011;60912;48.968;10.124;2022-10-31T01:46:29;8.13;;;3.60;;
71639;SDS011;60912;48.968;10.124;2022-10-31T01:48:59;9.27;;;3.70;;
71639;SDS011;60912;48.968;10.124;2022-10-31T01:51:27;11.40;;;4.10;;
71639;SDS011;60912;48.968;10.124;2022-10-31T01:54:00;8.90;;;3.78;;
71639;SDS011;60912;48.968;10.124;2022-10-31T01:56:29;10.38;;;3.92;;
71639;SDS011;60912;48.968;10.124;2022-10-31T01:58:56;8.27;;;3.80;;
71639;SDS011;60912;48.968;10.124;2022-10-31T02:01:24;9.13;;;3.63;;
71639;SDS011;60912;48.968;10.124;2022-10-31T02:03:50;8.70;;;3.60;;
71639;SDS011;60912;48.968;10.124;2022-10-31T02:06:21;7.40;;;3.30;;
71639;SDS011;60912;48.968;10.124;2022-10-31T02:08:54;10.15;;;4.13;;
71639;SDS011;60912;48.968;10.124;2022-10-31T02:11:22;11.20;;;3.38;;
71639;SDS011;60912;48.968;10.124;2022-10-31T02:13:47;10.60;;;3.33;;
71639;SDS011;60912;48.968;10.124;2022-10-31T02:16:13;9.70;;;3.42;;
71639;SDS011;60912;48.968;10.124;2022-10-31T02:18:38;7.47;;;3.60;;
71639;SDS011;60912;48.968;10.124;2022-10-31T02:21:21;7.90;;;3.40;;
71639;SDS011;60912;48.968;10.124;2022-10-31T02:24:07;8.48;;;3.60;;
71639;SDS011;60912;48.968;10.124;2022-10-31T02:32:29;7.85;;;3.15;;
71639;SDS011;60912;48.968;10.124;2022-10-31T02:40:47;7.50;;;3.42;;
71639;SDS011;60912;48.968;10.124;2022-10-31T02:45:48;11.70;;;3.67;;
71639;SDS011;60912;48.968;10.124;2022-10-31T02:48:21;8.65;;;3.75;;
71639;SDS011;60912;48.968;10.124;2022-10-31T02:50:52;7.70;;;3.20;;
71639;SDS011;60912;48.968;10.124;2022-10-31T02:53:21;9.73;;;3.35;;
71639;SDS011;60912;48.968;10.124;2022-10-31T02:55:52;8.17;;;3.50;;
71639;SDS011;60912;48.968;10.124;2022-10-31T02:58:24;13.13;;;4.10;;
71639;SDS011;60912;48.968;10.124;2022-10-31T03:12:53;9.60;;;3.65;;
71639;SDS011;60912;48.968;10.124;2022-10-31T03:15:36;13.57;;;3.60;;
71639;SDS011;60912;48.968;10.124;2022-10-31T03:20:41;8.95;;;3.33;;
71639;SDS011;60912;48.968;10.124;2022-10-31T03:23:14;10.30;;;3.50;;
71639;SDS011;60912;48.968;10.124;2022-10-31T03:25:41;8.15;;;3.53;;
71639;SDS011;60912;48.968;10.124;2022-10-31T03:28:08;7.83;;;3.47;;
71639;SDS011;60912;48.968;10.124;2022-10-31T03:30:37;11.30;;;3.60;;
71639;SDS011;60912;48.968;10.124;2022-10-31T03:33:08;7.20;;;3.83;;
71639;SDS011;60912;48.968;10.124;2022-10-31T03:35:40;9.10;;;3.60;;
71639;SDS011;60912;48.968;10.124;2022-10-31T03:38:07;9.93;;;4.30;;
71639;SDS011;60912;48.968;10.124;2022-10-31T03:40:34;8.67;;;3.50;;
71639;SDS011;60912;48.968;10.124;2022-10-31T03:43:06;8.55;;;3.65;;
71639;SDS011;60912;48.968;10.124;2022-10-31T03:45:36;7.30;;;3.38;;
71639;SDS011;60912;48.968;10.124;2022-10-31T03:48:07;7.60;;;3.15;;
71639;SDS011;60912;48.968;10.124;2022-10-31T03:50:37;10.70;;;3.30;;
71639;SDS011;60912;48.968;10.124;2022-10-31T03:53:11;6.28;;;2.90;;
71639;SDS011;60912;48.968;10.124;2022-10-31T03:55:48;5.53;;;2.90;;
71639;SDS011;60912;48.968;10.124;2022-10-31T03:58:21;12.05;;;3.30;;
71639;SDS011;60912;48.968;10.124;2022-10-31T04:00:51;12.15;;;3.58;;
71639;SDS011;60912;48.968;10.124;2022-10-31T04:03:21;8.03;;;3.10;;
71639;SDS011;60912;48.968;10.124;2022-10-31T04:05:50;10.68;;;3.53;;
71639;SDS011;60912;48.968;10.124;2022-10-31T04:08:20;7.25;;;3.20;;
71639;SDS011;60912;48.968;10.124;2022-10-31T04:10:49;6.65;;;3.35;;
71639;SDS011;60912;48.968;10.124;2022-10-31T04:13:19;6.93;;;2.90;;
71639;SDS011;60912;48.968;10.124;2022-10-31T04:15:53;6.67;;;2.97;;
71639;SDS011;60912;48.968;10.124;2022-10-31T04:18:21;7.60;;;2.83;;
71639;SDS011;60912;48.968;10.124;2022-10-31T04:20:48;7.72;;;3.15;;
71639;SDS011;60912;48.968;10.124;2022-10-31T04:23:20;6.65;;;3.20;;
71639;SDS011;60912;48.968;10.124;2022-10-31T04:25:48;4.97;;;2.90;;
71639;SDS011;60912;48.968;10.124;2022-10-31T04:28:13;8.43;;;3.13;;
71639;SDS011;60912;48.968;10.124;2022-10-31T04:30:38;6.20;;;3.13;;
71639;SDS011;60912;48.968;10.124;2022-10-31T04:33:04;6.77;;;2.80;;
71639;SDS011;60912;48.968;10.124;2022-10-31T04:38:23;8.93;;;3.10;;
71639;SDS011;60912;48.968;10.124;2022-10-31T04:40:49;9.70;;;3.03;;
71639;SDS011;60912;48.968;10.124;2022-10-31T04:43:14;7.60;;;2.83;;
71639;SDS011;60912;48.968;10.124;2022-10-31T04:45:40;9.43;;;3.00;;
71639;SDS011;60912;48.968;10.124;2022-10-31T04:48:05;5.27;;;3.20;;
71639;SDS011;60912;48.968;10.124;2022-10-31T04:50:30;8.07;;;2.93;;
71639;SDS011;60912;48.968;10.124;2022-10-31T04:52:56;11.73;;;3.97;;
71639;SDS011;60912;48.968;10.124;2022-10-31T04:55:24;6.40;;;3.20;;
71639;SDS011;60912;48.968;10.124;2022-10-31T04:57:52;6.72;;;3.15;;
71639;SDS011;60912;48.968;10.124;2022-10-31T05:00:19;5.83;;;3.03;;
71639;SDS011;60912;48.968;10.124;2022-10-31T05:02:49;6.00;;;2.50;;
71639;SDS011;60912;48.968;10.124;2022-10-31T05:05:27;6.03;;;2.67;;
71639;SDS011;60912;48.968;10.124;2022-10-31T05:07:54;6.68;;;3.17;;
71639;SDS011;60912;48.968;10.124;2022-10-31T05:10:20;6.07;;;2.80;;
71639;SDS011;60912;48.968;10.124;2022-10-31T05:12:48;5.50;;;2.47;;
71639;SDS011;60912;48.968;10.124;2022-10-31T05:15:39;7.63;;;2.83;;
71639;SDS011;60912;48.968;10.124;2022-10-31T05:21:07;6.57;;;3.20;;
71639;SDS011;60912;48.968;10.124;2022-10-31T05:23:42;8.18;;;3.08;;
71639;SDS011;60912;48.968;10.124;2022-10-31T05:26:20;6.95;;;3.45;;
71639;SDS011;60912;48.968;10.124;2022-10-31T05:28:51;8.17;;;3.40;;
71639;SDS011;60912;48.968;10.124;2022-10-31T05:31:17;7.10;;;3.20;;
71639;SDS011;60912;48.968;10.124;2022-10-31T05:33:50;9.45;;;3.42;;
71639;SDS011;60912;48.968;10.124;2022-10-31T05:36:17;12.20;;;3.03;;
71639;SDS011;60912;48.968;10.124;2022-10-31T05:38:56;8.80;;;2.95;;
71639;SDS011;60912;48.968;10.124;2022-10-31T05:41:29;8.40;;;3.08;;
71639;SDS011;60912;48.968;10.124;2022-10-31T05:43:55;8.00;;;2.90;;
71639;SDS011;60912;48.968;10.124;2022-10-31T05:46:20;8.60;;;3.30;;
71639;SDS011;60912;48.968;10.124;2022-10-31T05:48:45;8.33;;;2.90;;
71639;SDS011;60912;48.968;10.124;2022-10-31T05:51:12;7.37;;;3.00;;
71639;SDS011;60912;48.968;10.124;2022-10-31T05:53:37;9.38;;;3.40;;
71639;SDS011;60912;48.968;10.124;2022-10-31T05:56:03;10.90;;;3.23;;
71639;SDS011;60912;48.968;10.124;2022-10-31T05:58:28;6.60;;;2.90;;
71639;SDS011;60912;48.968;10.124;2022-10-31T06:01:00;9.87;;;2.80;;
71639;SDS011;60912;48.968;10.124;2022-10-31T06:03:32;5.38;;;2.88;;
71639;SDS011;60912;48.968;10.124;2022-10-31T06:05:58;7.03;;;2.90;;
71639;SDS011;60912;48.968;10.124;2022-10-31T06:08:23;8.97;;;3.03;;
71639;SDS011;60912;48.968;10.124;2022-10-31T06:10:54;8.25;;;3.25;;
71639;SDS011;60912;48.968;10.124;2022-10-31T06:13:20;11.70;;;3.07;;
71639;SDS011;60912;48.968;10.124;2022-10-31T06:15:46;10.00;;;2.77;;
71639;SDS011;60912;48.968;10.124;2022-10-31T06:18:14;8.73;;;3.00;;
71639;SDS011;60912;48.968;10.124;2022-10-31T06:20:42;10.33;;;3.50;;
71639;SDS011;60912;48.968;10.124;2022-10-31T06:23:17;5.73;;;2.90;;
71639;SDS011;60912;48.968;10.124;2022-10-31T06:25:51;7.55;;;3.28;;
71639;SDS011;60912;48.968;10.124;2022-10-31T06:28:39;8.50;;;3.08;;
71639;SDS011;60912;48.968;10.124;2022-10-31T06:31:07;7.93;;;3.05;;
71639;SDS011;60912;48.968;10.124;2022-10-31T06:33:43;7.10;;;2.80;;
71639;SDS011;60912;48.968;10.124;2022-10-31T06:36:09;6.57;;;2.70;;
71639;SDS011;60912;48.968;10.124;2022-10-31T06:38:37;7.30;;;2.67;;
71639;SDS011;60912;48.968;10.124;2022-10-31T06:41:08;7.73;;;2.60;;
71639;SDS011;60912;48.968;10.124;2022-10-31T06:43:33;5.90;;;2.83;;
71639;SDS011;60912;48.968;10.124;2022-10-31T06:46:03;5.73;;;2.70;;
71639;SDS011;60912;48.968;10.124;2022-10-31T06:48:32;15.75;;;3.28;;
71639;SDS011;60912;48.968;10.124;2022-10-31T06:51:13;11.48;;;2.97;;
71639;SDS011;60912;48.968;10.124;2022-10-31T06:53:46;5.50;;;2.40;;
71639;SDS011;60912;48.968;10.124;2022-10-31T06:56:12;9.82;;;3.13;;
71639;SDS011;60912;48.968;10.124;2022-10-31T06:58:38;9.00;;;3.22;;
71639;SDS011;60912;48.968;10.124;2022-10-31T07:01:06;8.90;;;2.80;;
71639;SDS011;60912;48.968;10.124;2022-10-31T07:03:31;7.57;;;2.80;;
71639;SDS011;60912;48.968;10.124;2022-10-31T07:06:02;7.80;;;2.93;;
71639;SDS011;60912;48.968;10.124;2022-10-31T07:08:30;5.47;;;3.00;;
71639;SDS011;60912;48.968;10.124;2022-10-31T07:10:56;11.40;;;3.47;;
71639;SDS011;60912;48.968;10.124;2022-10-31T07:13:24;9.87;;;3.60;;
71639;SDS011;60912;48.968;10.124;2022-10-31T07:15:51;9.15;;;3.58;;
71639;SDS011;60912;48.968;10.124;2022-10-31T07:18:27;12.13;;;3.58;;
71639;SDS011;60912;48.968;10.124;2022-10-31T07:21:03;11.57;;;3.90;;
71639;SDS011;60912;48.968;10.124;2022-10-31T07:23:35;8.57;;;3.33;;
71639;SDS011;60912;48.968;10.124;2022-10-31T07:26:07;9.00;;;3.80;;
71639;SDS011;60912;48.968;10.124;2022-10-31T07:28:43;9.00;;;4.75;;
71639;SDS011;60912;48.968;10.124;2022-10-31T07:31:08;7.38;;;3.70;;
71639;SDS011;60912;48.968;10.124;2022-10-31T07:33:37;9.70;;;3.40;;
71639;SDS011;60912;48.968;10.124;2022-10-31T07:36:02;9.33;;;3.93;;
71639;SDS011;60912;48.968;10.124;2022-10-31T07:41:09;11.23;;;3.92;;
71639;SDS011;60912;48.968;10.124;2022-10-31T07:43:42;7.20;;;3.77;;
71639;SDS011;60912;48.968;10.124;2022-10-31T07:46:07;11.50;;;4.20;;
71639;SDS011;60912;48.968;10.124;2022-10-31T07:48:47;9.07;;;3.97;;
71639;SDS011;60912;48.968;10.124;2022-10-31T07:51:21;10.90;;;4.13;;
71639;SDS011;60912;48.968;10.124;2022-10-31T07:53:48;11.18;;;3.33;;
71639;SDS011;60912;48.968;10.124;2022-10-31T07:56:17;7.70;;;3.40;;
71639;SDS011;60912;48.968;10.124;2022-10-31T07:58:42;9.57;;;3.55;;
71639;SDS011;60912;48.968;10.124;2022-10-31T08:01:10;10.67;;;3.63;;
71639;SDS011;60912;48.968;10.124;2022-10-31T08:03:39;7.63;;;3.55;;
71639;SDS011;60912;48.968;10.124;2022-10-31T08:06:13;6.20;;;3.30;;
71639;SDS011;60912;48.968;10.124;2022-10-31T08:08:42;9.82;;;3.25;;
71639;SDS011;60912;48.968;10.124;2022-10-31T08:11:33;12.40;;;3.63;;
71639;SDS011;60912;48.968;10.124;2022-10-31T08:14:05;15.18;;;3.67;;
71639;SDS011;60912;48.968;10.124;2022-10-31T08:16:31;11.13;;;3.88;;
71639;SDS011;60912;48.968;10.124;2022-10-31T08:18:56;8.87;;;4.00;;
71639;SDS011;60912;48.968;10.124;2022-10-31T08:21:22;13.20;;;4.50;;
71639;SDS011;60912;48.968;10.124;2022-10-31T08:23:47;14.65;;;5.60;;
71639;SDS011;60912;48.968;10.124;2022-10-31T08:26:13;10.80;;;5.13;;
71639;SDS011;60912;48.968;10.124;2022-10-31T08:28:41;12.13;;;4.70;;
71639;SDS011;60912;48.968;10.124;2022-10-31T08:31:09;10.93;;;4.55;;
71639;SDS011;60912;48.968;10.124;2022-10-31T08:33:37;10.45;;;4.70;;
71639;SDS011;60912;48.968;10.124;2022-10-31T08:36:02;12.03;;;4.67;;
71639;SDS011;60912;48.968;10.124;2022-10-31T08:38:34;9.35;;;4.30;;
71639;SDS011;60912;48.968;10.124;2022-10-31T08:41:02;10.50;;;4.20;;
71639;SDS011;60912;48.968;10.124;2022-10-31T08:43:32;10.27;;;4.30;;
71639;SDS011;60912;48.968;10.124;2022-10-31T08:45:57;10.00;;;4.63;;
71639;SDS011;60912;48.968;10.124;2022-10-31T08:51:27;11.20;;;5.25;;
71639;SDS011;60912;48.968;10.124;2022-10-31T08:53:58;7.90;;;4.03;;
71639;SDS011;60912;48.968;10.124;2022-10-31T08:56:26;13.05;;;4.68;;
71639;SDS011;60912;48.968;10.124;2022-10-31T08:58:52;16.23;;;4.93;;
71639;SDS011;60912;48.968;10.124;2022-10-31T09:01:18;10.90;;;4.75;;
71639;SDS011;60912;48.968;10.124;2022-10-31T09:03:46;11.63;;;5.10;;
71639;SDS011;60912;48.968;10.124;2022-10-31T09:06:11;11.60;;;4.80;;
71639;SDS011;60912;48.968;10.124;2022-10-31T09:08:37;14.10;;;5.00;;
71639;SDS011;60912;48.968;10.124;2022-10-31T09:11:03;14.93;;;6.83;;
71639;SDS011;60912;48.968;10.124;2022-10-31T09:13:29;12.43;;;6.10;;
71639;SDS011;60912;48.968;10.124;2022-10-31T09:15:55;15.38;;;6.03;;
71639;SDS011;60912;48.968;10.124;2022-10-31T09:18:21;13.60;;;6.00;;
71639;SDS011;60912;48.968;10.124;2022-10-31T09:20:48;14.27;;;5.87;;
71639;SDS011;60912;48.968;10.124;2022-10-31T09:23:15;15.18;;;5.95;;
71639;SDS011;60912;48.968;10.124;2022-10-31T09:25:42;12.43;;;5.50;;
71639;SDS011;60912;48.968;10.124;2022-10-31T09:28:09;16.20;;;6.10;;
71639;SDS011;60912;48.968;10.124;2022-10-31T09:30:36;16.38;;;5.80;;
71639;SDS011;60912;48.968;10.124;2022-10-31T09:33:03;16.80;;;5.40;;
71639;SDS011;60912;48.968;10.124;2022-10-31T09:35:30;11.65;;;5.90;;
71639;SDS011;60912;48.968;10.124;2022-10-31T09:37:57;15.07;;;5.82;;
71639;SDS011;60912;48.968;10.124;2022-10-31T09:40:32;14.20;;;6.43;;
71639;SDS011;60912;48.968;10.124;2022-10-31T09:43:03;16.23;;;6.32;;
71639;SDS011;60912;48.968;10.124;2022-10-31T09:50:54;18.60;;;7.05;;
71639;SDS011;60912;48.968;10.124;2022-10-31T09:53:35;18.52;;;7.40;;
71639;SDS011;60912;48.968;10.124;2022-10-31T09:56:04;17.25;;;6.70;;
71639;SDS011;60912;48.968;10.124;2022-10-31T09:58:34;22.33;;;7.03;;
71639;SDS011;60912;48.968;10.124;2022-10-31T10:01:14;17.02;;;7.35;;
71639;SDS011;60912;48.968;10.124;2022-10-31T10:03:49;15.88;;;7.25;;
71639;SDS011;60912;48.968;10.124;2022-10-31T10:06:18;13.75;;;6.85;;
71639;SDS011;60912;48.968;10.124;2022-10-31T10:08:47;19.67;;;6.78;;
71639;SDS011;60912;48.968;10.124;2022-10-31T10:20:04;17.63;;;6.87;;
71639;SDS011;60912;48.968;10.124;2022-10-31T10:25:39;14.90;;;7.00;;
71639;SDS011;60912;48.968;10.124;2022-10-31T10:28:22;21.10;;;7.32;;
71639;SDS011;60912;48.968;10.124;2022-10-31T10:33:44;18.47;;;6.87;;
71639;SDS011;60912;48.968;10.124;2022-10-31T10:36:24;16.65;;;7.10;;
71639;SDS011;60912;48.968;10.124;2022-10-31T10:41:21;18.23;;;7.18;;
71639;SDS011;60912;48.968;10.124;2022-10-31T10:43:49;23.23;;;7.22;;
71639;SDS011;60912;48.968;10.124;2022-10-31T10:46:21;16.17;;;6.70;;
71639;SDS011;60912;48.968;10.124;2022-10-31T10:55:11;14.02;;;6.50;;
71639;SDS011;60912;48.968;10.124;2022-10-31T10:58:03;15.93;;;6.55;;
71639;SDS011;60912;48.968;10.124;2022-10-31T11:03:01;14.02;;;6.07;;
71639;SDS011;60912;48.968;10.124;2022-10-31T11:08:07;19.77;;;6.80;;
71639;SDS011;60912;48.968;10.124;2022-10-31T11:10:34;18.48;;;6.18;;
71639;SDS011;60912;48.968;10.124;2022-10-31T11:13:05;15.52;;;6.32;;
71639;SDS011;60912;48.968;10.124;2022-10-31T11:15:35;18.25;;;7.05;;
71639;SDS011;60912;48.968;10.124;2022-10-31T11:18:19;17.00;;;6.72;;
71639;SDS011;60912;48.968;10.124;2022-10-31T11:20:50;17.80;;;6.30;;
71639;SDS011;60912;48.968;10.124;2022-10-31T11:23:18;15.65;;;6.40;;
71639;SDS011;60912;48.968;10.124;2022-10-31T11:25:48;14.82;;;6.32;;
71639;SDS011;60912;48.968;10.124;2022-10-31T11:28:26;13.73;;;6.50;;
71639;SDS011;60912;48.968;10.124;2022-10-31T11:30:58;11.90;;;6.10;;
71639;SDS011;60912;48.968;10.124;2022-10-31T11:33:38;16.47;;;6.13;;
71639;SDS011;60912;48.968;10.124;2022-10-31T11:38:48;17.73;;;7.40;;
71639;SDS011;60912;48.968;10.124;2022-10-31T11:41:16;13.45;;;6.38;;
71639;SDS011;60912;48.968;10.124;2022-10-31T11:43:50;17.27;;;7.38;;
71639;SDS011;60912;48.968;10.124;2022-10-31T11:46:24;17.70;;;8.20;;
71639;SDS011;60912;48.968;10.124;2022-10-31T11:48:57;16.67;;;7.78;;
71639;SDS011;60912;48.968;10.124;2022-10-31T11:51:32;20.80;;;8.87;;
71639;SDS011;60912;48.968;10.124;2022-10-31T11:53:59;16.48;;;7.80;;
71639;SDS011;60912;48.968;10.124;2022-10-31T11:56:36;17.95;;;8.13;;
71639;SDS011;60912;48.968;10.124;2022-10-31T11:59:04;20.33;;;8.68;;
71639;SDS011;60912;48.968;10.124;2022-10-31T12:01:40;19.58;;;8.20;;
71639;SDS011;60912;48.968;10.124;2022-10-31T12:04:11;17.57;;;8.63;;
71639;SDS011;60912;48.968;10.124;2022-10-31T12:06:41;19.70;;;9.00;;
71639;SDS011;60912;48.968;10.124;2022-10-31T12:09:21;22.65;;;9.65;;
71639;SDS011;60912;48.968;10.124;2022-10-31T12:17:55;24.03;;;9.67;;
71639;SDS011;60912;48.968;10.124;2022-10-31T12:26:10;20.92;;;9.18;;
71639;SDS011;60912;48.968;10.124;2022-10-31T12:37:03;21.92;;;9.70;;
71639;SDS011;60912;48.968;10.124;2022-10-31T12:39:44;26.25;;;10.65;;
71639;SDS011;60912;48.968;10.124;2022-10-31T12:59:32;22.67;;;11.07;;
71639;SDS011;60912;48.968;10.124;2022-10-31T13:08:22;26.52;;;10.38;;
71639;SDS011;60912;48.968;10.124;2022-10-31T13:11:07;25.02;;;10.93;;
71639;SDS011;60912;48.968;10.124;2022-10-31T13:16:51;16.05;;;9.95;;
71639;SDS011;60912;48.968;10.124;2022-10-31T13:19:16;22.33;;;9.50;;
71639;SDS011;60912;48.968;10.124;2022-10-31T13:22:06;20.75;;;10.00;;
71639;SDS011;60912;48.968;10.124;2022-10-31T13:24:33;18.13;;;9.75;;
71639;SDS011;60912;48.968;10.124;2022-10-31T13:27:01;21.30;;;10.57;;
71639;SDS011;60912;48.968;10.124;2022-10-31T13:29:39;20.20;;;10.18;;
71639;SDS011;60912;48.968;10.124;2022-10-31T13:32:28;21.92;;;10.60;;
71639;SDS011;60912;48.968;10.124;2022-10-31T13:38:52;20.92;;;11.45;;
71639;SDS011;60912;48.968;10.124;2022-10-31T13:41:48;24.40;;;12.50;;
71639;SDS011;60912;48.968;10.124;2022-10-31T13:44:29;27.02;;;12.30;;
71639;SDS011;60912;48.968;10.124;2022-10-31T13:47:28;21.52;;;12.02;;
71639;SDS011;60912;48.968;10.124;2022-10-31T13:52:52;23.40;;;12.80;;
71639;SDS011;60912;48.968;10.124;2022-10-31T14:01:19;24.63;;;13.07;;
71639;SDS011;60912;48.968;10.124;2022-10-31T14:06:49;25.23;;;13.23;;
71639;SDS011;60912;48.968;10.124;2022-10-31T14:12:10;22.02;;;13.40;;
71639;SDS011;60912;48.968;10.124;2022-10-31T14:14:58;24.20;;;13.70;;
71639;SDS011;60912;48.968;10.124;2022-10-31T14:20:56;23.52;;;13.82;;
71639;SDS011;60912;48.968;10.124;2022-10-31T14:23:50;22.07;;;12.57;;
71639;SDS011;60912;48.968;10.124;2022-10-31T14:29:01;23.60;;;13.83;;
71639;SDS011;60912;48.968;10.124;2022-10-31T14:31:51;23.70;;;13.63;;
71639;SDS011;60912;48.968;10.124;2022-10-31T14:34:23;21.08;;;12.98;;
71639;SDS011;60912;48.968;10.124;2022-10-31T14:37:01;25.30;;;13.30;;
71639;SDS011;60912;48.968;10.124;2022-10-31T14:39:52;28.13;;;14.38;;
71639;SDS011;60912;48.968;10.124;2022-10-31T14:50:48;26.23;;;14.50;;
71639;SDS011;60912;48.968;10.124;2022-10-31T14:54:10;25.55;;;13.50;;
71639;SDS011;60912;48.968;10.124;2022-10-31T14:56:29;30.03;;;14.30;;
71639;SDS011;60912;48.968;10.124;2022-10-31T14:59:05;21.25;;;13.35;;
71639;SDS011;60912;48.968;10.124;2022-10-31T15:01:36;28.27;;;13.45;;
71639;SDS011;60912;48.968;10.124;2022-10-31T15:04:20;23.50;;;13.48;;
71639;SDS011;60912;48.968;10.124;2022-10-31T15:09:54;22.00;;;12.90;;
71639;SDS011;60912;48.968;10.124;2022-10-31T15:12:31;27.77;;;14.18;;
71639;SDS011;60912;48.968;10.124;2022-10-31T15:15:11;28.42;;;13.73;;
71639;SDS011;60912;48.968;10.124;2022-10-31T15:17:52;24.10;;;12.63;;
71639;SDS011;60912;48.968;10.124;2022-10-31T15:20:36;22.27;;;12.98;;
71639;SDS011;60912;48.968;10.124;2022-10-31T15:23:21;20.30;;;12.60;;
71639;SDS011;60912;48.968;10.124;2022-10-31T15:26:04;27.77;;;13.38;;
71639;SDS011;60912;48.968;10.124;2022-10-31T15:28:30;26.33;;;13.63;;
71639;SDS011;60912;48.968;10.124;2022-10-31T15:31:12;24.90;;;14.13;;
71639;SDS011;60912;48.968;10.124;2022-10-31T15:33:46;26.10;;;13.55;;
71639;SDS011;60912;48.968;10.124;2022-10-31T15:36:20;29.17;;;13.87;;
71639;SDS011;60912;48.968;10.124;2022-10-31T15:38:50;25.05;;;13.20;;
71639;SDS011;60912;48.968;10.124;2022-10-31T15:44:03;23.35;;;14.00;;
71639;SDS011;60912;48.968;10.124;2022-10-31T15:46:39;22.75;;;13.80;;
71639;SDS011;60912;48.968;10.124;2022-10-31T15:49:10;27.33;;;14.67;;
71639;SDS011;60912;48.968;10.124;2022-10-31T15:51:50;28.70;;;14.88;;
71639;SDS011;60912;48.968;10.124;2022-10-31T15:54:17;27.80;;;14.20;;
71639;SDS011;60912;48.968;10.124;2022-10-31T15:56:43;30.97;;;14.30;;
71639;SDS011;60912;48.968;10.124;2022-10-31T15:59:23;28.17;;;14.30;;
71639;SDS011;60912;48.968;10.124;2022-10-31T16:02:20;28.13;;;12.88;;
71639;SDS011;60912;48.968;10.124;2022-10-31T16:05:34;23.85;;;13.20;;
71639;SDS011;60912;48.968;10.124;2022-10-31T16:07:48;30.90;;;14.13;;
71639;SDS011;60912;48.968;10.124;2022-10-31T16:10:22;27.27;;;14.23;;
71639;SDS011;60912;48.968;10.124;2022-10-31T16:12:59;27.52;;;14.60;;
71639;SDS011;60912;48.968;10.124;2022-10-31T16:15:32;27.02;;;14.23;;
71639;SDS011;60912;48.968;10.124;2022-10-31T16:18:03;27.55;;;14.75;;
71639;SDS011;60912;48.968;10.124;2022-10-31T16:20:49;26.75;;;14.20;;
71639;SDS011;60912;48.968;10.124;2022-10-31T16:23:39;27.67;;;13.63;;
71639;SDS011;60912;48.968;10.124;2022-10-31T16:26:25;28.67;;;13.88;;
71639;SDS011;60912;48.968;10.124;2022-10-31T16:29:23;24.48;;;13.85;;
71639;SDS011;60912;48.968;10.124;2022-10-31T16:34:58;29.33;;;14.70;;
71639;SDS011;60912;48.968;10.124;2022-10-31T16:37:45;38.67;;;14.20;;
71639;SDS011;60912;48.968;10.124;2022-10-31T16:40:11;27.52;;;14.80;;
71639;SDS011;60912;48.968;10.124;2022-10-31T16:42:41;23.35;;;14.55;;
71639;SDS011;60912;48.968;10.124;2022-10-31T16:45:17;25.73;;;14.90;;
71639;SDS011;60912;48.968;10.124;2022-10-31T16:47:57;30.30;;;14.47;;
71639;SDS011;60912;48.968;10.124;2022-10-31T16:50:44;30.02;;;14.32;;
71639;SDS011;60912;48.968;10.124;2022-10-31T16:53:19;29.10;;;14.02;;
71639;SDS011;60912;48.968;10.124;2022-10-31T16:55:50;29.13;;;14.35;;
71639;SDS011;60912;48.968;10.124;2022-10-31T16:58:27;27.60;;;14.07;;
71639;SDS011;60912;48.968;10.124;2022-10-31T17:01:01;27.87;;;14.50;;
71639;SDS011;60912;48.968;10.124;2022-10-31T17:03:35;33.53;;;16.23;;
71639;SDS011;60912;48.968;10.124;2022-10-31T17:06:00;31.05;;;16.55;;
71639;SDS011;60912;48.968;10.124;2022-10-31T17:08:32;25.63;;;15.18;;
71639;SDS011;60912;48.968;10.124;2022-10-31T17:11:01;26.07;;;15.10;;
71639;SDS011;60912;48.968;10.124;2022-10-31T17:13:33;29.15;;;16.38;;
71639;SDS011;60912;48.968;10.124;2022-10-31T17:16:17;31.98;;;16.02;;
71639;SDS011;60912;48.968;10.124;2022-10-31T17:19:15;22.02;;;15.20;;
71639;SDS011;60912;48.968;10.124;2022-10-31T17:21:47;28.23;;;16.05;;
71639;SDS011;60912;48.968;10.124;2022-10-31T17:24:24;27.53;;;15.57;;
71639;SDS011;60912;48.968;10.124;2022-10-31T17:27:10;32.42;;;16.98;;
71639;SDS011;60912;48.968;10.124;2022-10-31T17:32:26;33.28;;;18.83;;
71639;SDS011;60912;48.968;10.124;2022-10-31T17:34:54;39.83;;;20.55;;
71639;SDS011;60912;48.968;10.124;2022-10-31T17:37:25;31.10;;;18.70;;
71639;SDS011;60912;48.968;10.124;2022-10-31T17:39:56;30.02;;;16.55;;
71639;SDS011;60912;48.968;10.124;2022-10-31T17:42:36;28.98;;;16.98;;